createdAt,value
2019-04-21T00:01:18.363Z,100603.00
2019-04-21T00:03:53.710Z,100599.00
2019-04-21T00:06:45.587Z,100588.00
2019-04-21T00:09:22.554Z,100590.00
2019-04-21T00:11:49.744Z,100586.00
2019-04-21T00:14:10.184Z,100581.00
2019-04-21T00:16:40.960Z,100575.00
2019-04-21T00:19:39.516Z,100571.00
2019-04-21T00:22:23.708Z,100572.00
2019-04-21T00:24:59.550Z,100568.00
2019-04-21T00:27:36.892Z,100566.00
2019-04-21T00:30:12.176Z,100562.00
2019-04-21T00:32:35.608Z,100557.00
2019-04-21T00:35:00.887Z,100561.00
2019-04-21T00:37:48.004Z,100561.00
2019-04-21T00:40:22.739Z,100569.00
2019-04-21T00:42:52.105Z,100558.00
2019-04-21T00:45:20.681Z,100560.00
2019-04-21T00:47:57.746Z,100561.00
2019-04-21T00:50:40.713Z,100555.00
2019-04-21T00:53:10.493Z,100553.00
2019-04-21T00:58:23.700Z,100556.00
2019-04-21T01:00:51.193Z,100540.00
2019-04-21T01:03:26.142Z,100540.00
2019-04-21T01:06:08.200Z,100543.00
2019-04-21T01:08:31.088Z,100541.00
2019-04-21T01:10:52.824Z,100539.00
2019-04-21T01:13:44.011Z,100541.00
2019-04-21T01:16:14.292Z,100544.00
2019-04-21T01:18:42.666Z,100541.00
2019-04-21T01:20:55.090Z,100538.00
2019-04-21T01:23:25.690Z,100534.00
2019-04-21T01:26:13.764Z,100531.00
2019-04-21T01:28:45.153Z,100534.00
2019-04-21T01:31:17.545Z,100541.00
2019-04-21T01:33:59.227Z,100532.00
2019-04-21T01:36:24.273Z,100535.00
2019-04-21T01:39:03.807Z,100541.00
2019-04-21T01:41:37.358Z,100534.00
2019-04-21T01:44:01.570Z,100539.00
2019-04-21T01:46:29.480Z,100537.00
2019-04-21T01:49:03.326Z,100535.00
2019-04-21T01:51:46.803Z,100535.00
2019-04-21T01:54:35.504Z,100527.00
2019-04-21T01:57:10.441Z,100529.00
2019-04-21T01:59:37.819Z,100523.00
2019-04-21T02:02:18.779Z,100520.00
2019-04-21T02:04:57.531Z,100518.00
2019-04-21T02:07:20.603Z,100513.00
2019-04-21T02:10:00.824Z,100515.00
2019-04-21T02:12:30.278Z,100515.00
2019-04-21T02:15:06.318Z,100517.00
2019-04-21T02:17:29.485Z,100511.00
2019-04-21T02:20:01.707Z,100519.00
2019-04-21T02:23:06.902Z,100520.00
2019-04-21T02:25:16.324Z,100514.00
2019-04-21T02:27:43.002Z,100511.00
2019-04-21T02:30:30.870Z,100516.00
2019-04-21T02:33:19.508Z,100515.00
2019-04-21T02:40:47.554Z,100507.00
2019-04-21T02:43:12.003Z,100513.00
2019-04-21T02:48:17.239Z,100499.00
2019-04-21T02:50:57.695Z,100499.00
2019-04-21T02:55:56.382Z,100503.00
2019-04-21T02:58:58.335Z,100494.00
2019-04-21T03:09:45.134Z,100475.00
2019-04-21T03:12:19.701Z,100474.00
2019-04-21T03:17:29.237Z,100462.00
2019-04-21T03:22:44.647Z,100458.00
2019-04-21T03:27:50.266Z,100462.00
2019-04-21T03:30:10.333Z,100454.00
2019-04-21T03:35:49.414Z,100454.00
2019-04-21T03:37:42.383Z,100454.00
2019-04-21T03:40:14.562Z,100447.00
2019-04-21T03:42:49.810Z,100450.00
2019-04-21T03:45:30.674Z,100450.00
2019-04-21T03:47:57.127Z,100447.00
2019-04-21T03:50:41.243Z,100449.00
2019-04-21T04:04:22.656Z,100450.00
2019-04-21T04:09:44.696Z,100449.00
2019-04-21T04:12:15.210Z,100452.00
2019-04-21T04:15:12.375Z,100454.00
2019-04-21T04:17:24.022Z,100465.00
2019-04-21T04:22:31.745Z,100476.00
2019-04-21T04:25:07.013Z,100470.00
2019-04-21T04:30:08.044Z,100472.00
2019-04-21T04:32:36.427Z,100467.00
2019-04-21T04:37:44.556Z,100472.00
2019-04-21T04:40:41.451Z,100471.00
2019-04-21T04:42:55.916Z,100476.00
2019-04-21T04:48:05.545Z,100483.00
2019-04-21T04:53:32.797Z,100472.00
2019-04-21T05:00:54.292Z,100469.00
2019-04-21T05:11:39.559Z,100458.00
2019-04-21T05:14:08.453Z,100448.00
2019-04-21T05:21:42.296Z,100442.00
2019-04-21T05:24:00.032Z,100453.00
2019-04-21T05:26:28.610Z,100451.00
2019-04-21T05:28:58.809Z,100451.00
2019-04-21T05:31:49.587Z,100458.00
2019-04-21T05:34:22.016Z,100454.00
2019-04-21T05:39:49.510Z,100454.00
2019-04-21T05:42:10.611Z,100459.00
2019-04-21T05:45:01.782Z,100459.00
2019-04-21T05:47:57.936Z,100460.00
2019-04-21T05:50:06.560Z,100458.00
2019-04-21T05:52:51.959Z,100460.00
2019-04-21T05:55:33.457Z,100453.00
2019-04-21T05:58:02.707Z,100451.00
2019-04-21T06:00:52.909Z,100452.00
2019-04-21T06:03:13.472Z,100454.00
2019-04-21T06:06:00.385Z,100456.00
2019-04-21T06:08:16.013Z,100452.00
2019-04-21T06:10:47.317Z,100452.00
2019-04-21T06:15:56.968Z,100450.00
2019-04-21T06:18:27.346Z,100445.00
2019-04-21T06:21:04.102Z,100444.00
2019-04-21T06:23:30.195Z,100442.00
2019-04-21T06:28:38.904Z,100441.00
2019-04-21T06:33:43.111Z,100438.00
2019-04-21T06:44:08.232Z,100440.00
2019-04-21T06:49:23.955Z,100446.00
2019-04-21T06:51:38.630Z,100436.00
2019-04-21T06:54:30.563Z,100439.00
2019-04-21T06:56:56.575Z,100431.00
2019-04-21T06:59:17.084Z,100434.00
2019-04-21T07:01:52.730Z,100434.00
2019-04-21T07:04:25.246Z,100431.00
2019-04-21T07:07:12.912Z,100437.00
2019-04-21T07:09:31.416Z,100434.00
2019-04-21T07:12:01.845Z,100437.00
2019-04-21T07:14:34.069Z,100436.00
2019-04-21T07:17:16.026Z,100439.00
2019-04-21T07:19:48.403Z,100441.00
2019-04-21T07:22:17.788Z,100437.00
2019-04-21T07:24:48.157Z,100434.00
2019-04-21T07:27:24.155Z,100438.00
2019-04-21T07:29:58.329Z,100437.00
2019-04-21T07:32:26.465Z,100433.00
2019-04-21T07:35:03.663Z,100429.00
2019-04-21T07:37:29.940Z,100438.00
2019-04-21T07:40:03.740Z,100436.00
2019-04-21T07:42:36.510Z,100429.00
2019-04-21T07:45:05.229Z,100433.00
2019-04-21T07:47:46.360Z,100438.00
2019-04-21T07:50:28.595Z,100434.00
2019-04-21T07:53:05.203Z,100431.00
2019-04-21T07:58:17.717Z,100428.00
2019-04-21T08:03:07.946Z,100423.00
2019-04-21T08:05:47.161Z,100426.00
2019-04-21T08:08:12.084Z,100426.00
2019-04-21T08:10:44.305Z,100421.00
2019-04-21T08:13:31.290Z,100431.00
2019-04-21T08:15:51.000Z,100429.00
2019-04-21T08:18:28.357Z,100415.00
2019-04-21T08:20:56.457Z,100416.00
2019-04-21T08:23:31.515Z,100411.00
2019-04-21T08:26:04.936Z,100419.00
2019-04-21T08:31:10.298Z,100413.00
2019-04-21T08:36:17.704Z,100412.00
2019-04-21T08:38:48.186Z,100420.00
2019-04-21T08:41:15.225Z,100414.00
2019-04-21T08:43:52.682Z,100420.00
2019-04-21T08:48:56.195Z,100408.00
2019-04-21T08:51:34.006Z,100414.00
2019-04-21T08:54:01.197Z,100423.00
2019-04-21T08:56:49.686Z,100417.00
2019-04-21T08:59:36.540Z,100410.00
2019-04-21T09:02:12.475Z,100403.00
2019-04-21T09:04:39.630Z,100405.00
2019-04-21T09:07:12.982Z,100404.00
2019-04-21T09:09:46.763Z,100402.00
2019-04-21T09:12:17.844Z,100396.00
2019-04-21T09:14:50.284Z,100394.00
2019-04-21T09:17:15.394Z,100394.00
2019-04-21T09:20:05.733Z,100390.00
2019-04-21T09:22:24.392Z,100392.00
2019-04-21T09:24:55.955Z,100386.00
2019-04-21T09:27:33.623Z,100389.00
2019-04-21T09:29:52.368Z,100378.00
2019-04-21T09:32:22.130Z,100375.00
2019-04-21T09:34:52.416Z,100378.00
2019-04-21T09:37:35.326Z,100363.00
2019-04-21T09:39:57.421Z,100368.00
2019-04-21T09:42:35.246Z,100371.00
2019-04-21T09:45:03.145Z,100359.00
2019-04-21T09:47:40.125Z,100359.00
2019-04-21T09:50:06.454Z,100349.00
2019-04-21T09:52:45.433Z,100353.00
2019-04-21T09:55:15.300Z,100348.00
2019-04-21T09:57:48.489Z,100341.00
2019-04-21T10:00:21.068Z,100339.00
2019-04-21T10:02:55.572Z,100337.00
2019-04-21T10:05:19.389Z,100332.00
2019-04-21T10:07:50.757Z,100331.00
2019-04-21T10:10:21.433Z,100338.00
2019-04-21T10:12:52.166Z,100324.00
2019-04-21T10:15:26.281Z,100311.00
2019-04-21T10:18:00.581Z,100309.00
2019-04-21T10:20:31.276Z,100321.00
2019-04-21T10:23:02.923Z,100316.00
2019-04-21T10:25:34.655Z,100305.00
2019-04-21T10:28:05.434Z,100309.00
2019-04-21T10:30:36.484Z,100307.00
2019-04-21T10:33:08.200Z,100295.00
2019-04-21T10:35:39.441Z,100286.00
2019-04-21T10:38:19.882Z,100286.00
2019-04-21T10:40:43.450Z,100285.00
2019-04-21T10:43:18.931Z,100273.00
2019-04-21T10:45:46.767Z,100272.00
2019-04-21T10:48:18.822Z,100273.00
2019-04-21T10:50:51.037Z,100275.00
2019-04-21T10:53:25.008Z,100270.00
2019-04-21T10:56:09.663Z,100274.00
2019-04-21T10:58:32.042Z,100265.00
2019-04-21T11:01:18.965Z,100270.00
2019-04-21T11:03:56.046Z,100271.00
2019-04-21T11:06:26.680Z,100267.00
2019-04-21T11:08:59.499Z,100270.00
2019-04-21T11:11:30.197Z,100261.00
2019-04-21T11:14:02.255Z,100251.00
2019-04-21T11:16:37.231Z,100251.00
2019-04-21T11:19:07.977Z,100249.00
2019-04-21T11:21:38.802Z,100237.00
2019-04-21T11:24:10.262Z,100238.00
2019-04-21T11:26:42.069Z,100224.00
2019-04-21T11:29:12.914Z,100221.00
2019-04-21T11:31:43.501Z,100215.00
2019-04-21T11:34:15.390Z,100225.00
2019-04-21T11:36:46.246Z,100210.00
2019-04-21T11:39:39.100Z,100210.00
2019-04-21T11:41:59.729Z,100211.00
2019-04-21T11:44:31.033Z,100210.00
2019-04-21T11:47:04.507Z,100211.00
2019-04-21T11:49:35.177Z,100210.00
2019-04-21T11:52:06.953Z,100196.00
2019-04-21T11:54:38.963Z,100192.00
2019-04-21T11:57:17.554Z,100186.00
2019-04-21T11:59:41.979Z,100191.00
2019-04-21T12:02:12.711Z,100186.00
2019-04-21T12:04:43.574Z,100186.00
2019-04-21T12:07:15.347Z,100179.00
2019-04-21T12:09:46.184Z,100184.00
2019-04-21T12:12:17.058Z,100179.00
2019-04-21T12:14:47.992Z,100181.00
2019-04-21T12:17:18.712Z,100177.00
2019-04-21T12:19:50.434Z,100173.00
2019-04-21T12:22:26.541Z,100172.00
2019-04-21T12:24:53.697Z,100167.00
2019-04-21T12:27:25.666Z,100155.00
2019-04-21T12:29:57.619Z,100158.00
2019-04-21T12:32:40.138Z,100146.00
2019-04-21T12:35:12.317Z,100155.00
2019-04-21T12:37:43.016Z,100147.00
2019-04-21T12:40:14.735Z,100145.00
2019-04-21T12:42:45.597Z,100140.00
2019-04-21T12:45:17.389Z,100140.00
2019-04-21T12:47:50.312Z,100129.00
2019-04-21T12:50:21.480Z,100121.00
2019-04-21T12:52:53.579Z,100120.00
2019-04-21T12:55:30.570Z,100122.00
2019-04-21T12:57:57.271Z,100114.00
2019-04-21T13:00:28.962Z,100114.00
2019-04-21T13:02:59.558Z,100113.00
2019-04-21T13:05:31.545Z,100102.00
2019-04-21T13:08:03.677Z,100092.00
2019-04-21T13:10:35.938Z,100100.00
2019-04-21T13:13:08.460Z,100089.00
2019-04-21T13:15:39.779Z,100088.00
2019-04-21T13:18:10.534Z,100084.00
2019-04-21T13:20:42.376Z,100086.00
2019-04-21T13:23:13.864Z,100086.00
2019-04-21T13:25:45.707Z,100087.00
2019-04-21T13:28:16.633Z,100084.00
2019-04-21T13:30:48.503Z,100070.00
2019-04-21T13:33:19.300Z,100078.00
2019-04-21T13:35:50.940Z,100066.00
2019-04-21T13:38:30.128Z,100064.00
2019-04-21T13:41:23.065Z,100055.00
2019-04-21T13:43:39.212Z,100054.00
2019-04-21T13:46:10.108Z,100059.00
2019-04-21T13:48:42.375Z,100050.00
2019-04-21T13:51:13.365Z,100051.00
2019-04-21T13:53:44.031Z,100042.00
2019-04-21T13:56:14.602Z,100041.00
2019-04-21T13:58:46.300Z,100038.00
2019-04-21T14:01:18.022Z,100033.00
2019-04-21T14:03:49.434Z,100042.00
2019-04-21T14:06:20.446Z,100029.00
2019-04-21T14:08:52.407Z,100041.00
2019-04-21T14:11:23.247Z,100024.00
2019-04-21T14:13:54.391Z,100020.00
2019-04-21T14:16:26.529Z,100017.00
2019-04-21T14:18:57.291Z,100015.00
2019-04-21T14:21:29.322Z,100009.00
2019-04-21T14:24:01.148Z,100012.00
2019-04-21T14:26:32.203Z,100005.00
2019-04-21T14:29:03.588Z,100003.00
2019-04-21T14:31:34.685Z,100013.00
2019-04-21T14:34:05.966Z,100004.00
2019-04-21T14:36:37.028Z,100004.00
2019-04-21T14:39:12.569Z,99998.00
2019-04-21T14:41:44.267Z,100009.00
2019-04-21T14:44:15.315Z,99992.00
2019-04-21T14:47:00.836Z,99996.00
2019-04-21T14:49:57.408Z,99988.00
2019-04-21T14:52:31.183Z,99990.00
2019-04-21T14:55:08.833Z,99991.00
2019-04-21T14:57:39.558Z,99987.00
2019-04-21T15:00:15.998Z,99987.00
2019-04-21T15:02:47.668Z,99991.00
2019-04-21T15:05:19.629Z,99980.00
2019-04-21T15:07:50.978Z,99989.00
2019-04-21T15:10:25.615Z,99971.00
2019-04-21T15:12:53.995Z,99974.00
2019-04-21T15:15:25.621Z,99973.00
2019-04-21T15:17:57.826Z,99972.00
2019-04-21T15:20:28.743Z,99973.00
2019-04-21T15:23:00.436Z,99964.00
2019-04-21T15:25:32.344Z,99965.00
2019-04-21T15:28:03.250Z,99964.00
2019-04-21T15:30:34.470Z,99964.00
2019-04-21T15:33:06.369Z,99968.00
2019-04-21T15:35:37.413Z,99960.00
2019-04-21T15:38:08.075Z,99964.00
2019-04-21T15:40:46.821Z,99961.00
2019-04-21T15:43:12.496Z,99956.00
2019-04-21T15:45:44.280Z,99952.00
2019-04-21T15:48:16.052Z,99957.00
2019-04-21T15:50:48.019Z,99953.00
2019-04-21T15:53:19.413Z,99949.00
2019-04-21T15:56:00.191Z,99937.00
2019-04-21T15:58:52.947Z,99941.00
2019-04-21T16:01:44.041Z,99944.00
2019-04-21T16:04:14.772Z,99938.00
2019-04-21T16:06:45.761Z,99933.00
2019-04-21T16:09:20.976Z,99925.00
2019-04-21T16:11:49.728Z,99932.00
2019-04-21T16:14:20.710Z,99931.00
2019-04-21T16:16:51.710Z,99922.00
2019-04-21T16:19:24.933Z,99922.00
2019-04-21T16:21:56.777Z,99916.00
2019-04-21T16:24:27.571Z,99924.00
2019-04-21T16:27:02.805Z,99915.00
2019-04-21T16:29:31.596Z,99919.00
2019-04-21T16:32:02.196Z,99919.00
2019-04-21T16:34:42.715Z,99912.00
2019-04-21T16:37:05.607Z,99909.00
2019-04-21T16:39:37.621Z,99908.00
2019-04-21T16:42:08.938Z,99899.00
2019-04-21T16:44:41.000Z,99908.00
2019-04-21T16:47:11.835Z,99907.00
2019-04-21T16:49:45.424Z,99898.00
2019-04-21T16:52:25.965Z,99900.00
2019-04-21T16:55:03.467Z,99897.00
2019-04-21T16:57:43.840Z,99898.00
2019-04-21T17:00:32.767Z,99894.00
2019-04-21T17:02:54.767Z,99890.00
2019-04-21T17:05:25.371Z,99892.00
2019-04-21T17:07:55.917Z,99887.00
2019-04-21T17:10:26.682Z,99888.00
2019-04-21T17:12:57.691Z,99882.00
2019-04-21T17:15:51.176Z,99877.00
2019-04-21T17:18:20.288Z,99879.00
2019-04-21T17:20:46.131Z,99880.00
2019-04-21T17:23:09.397Z,99874.00
2019-04-21T17:25:41.397Z,99871.00
2019-04-21T17:28:12.262Z,99881.00
2019-04-21T17:30:42.463Z,99877.00
2019-04-21T17:33:16.224Z,99873.00
2019-04-21T17:35:46.861Z,99872.00
2019-04-21T17:38:18.484Z,99874.00
2019-04-21T17:40:49.516Z,99873.00
2019-04-21T17:43:21.661Z,99871.00
2019-04-21T17:45:53.217Z,99869.00
2019-04-21T17:48:25.123Z,99864.00
2019-04-21T17:51:07.751Z,99864.00
2019-04-21T17:54:17.585Z,99864.00
2019-04-21T17:57:05.540Z,99870.00
2019-04-21T17:59:50.649Z,99869.00
2019-04-21T18:02:09.383Z,99870.00
2019-04-21T18:04:41.493Z,99871.00
2019-04-21T18:07:27.283Z,99863.00
2019-04-21T18:10:05.019Z,99874.00
2019-04-21T18:12:33.722Z,99872.00
2019-04-21T18:15:00.162Z,99865.00
2019-04-21T18:17:22.859Z,99874.00
2019-04-21T18:19:55.609Z,99873.00
2019-04-21T18:22:47.999Z,99873.00
2019-04-21T18:25:33.234Z,99873.00
2019-04-21T18:27:54.474Z,99873.00
2019-04-21T18:30:50.518Z,99874.00
2019-04-21T18:33:29.967Z,99875.00
2019-04-21T18:36:25.761Z,99873.00
2019-04-21T18:39:34.253Z,99877.00
2019-04-21T18:42:17.190Z,99864.00
2019-04-21T18:45:28.544Z,99872.00
2019-04-21T18:47:48.796Z,99873.00
2019-04-21T18:50:55.555Z,99878.00
2019-04-21T18:53:51.903Z,99883.00
2019-04-21T18:56:16.722Z,99878.00
2019-04-21T18:58:46.652Z,99883.00
2019-04-21T19:01:22.852Z,99880.00
2019-04-21T19:03:52.676Z,99885.00
2019-04-21T19:06:44.141Z,99881.00
2019-04-21T19:09:18.711Z,99891.00
2019-04-21T19:11:49.706Z,99887.00
2019-04-21T19:14:36.160Z,99889.00
2019-04-21T19:17:10.766Z,99894.00
2019-04-21T19:22:00.178Z,99890.00
2019-04-21T19:24:36.925Z,99881.00
2019-04-21T19:29:34.243Z,99886.00
2019-04-21T19:32:30.412Z,99883.00
2019-04-21T19:34:47.970Z,99891.00
2019-04-21T19:37:21.951Z,99885.00
2019-04-21T19:40:01.869Z,99879.00
2019-04-21T19:42:32.302Z,99883.00
2019-04-21T19:45:11.825Z,99883.00
2019-04-21T19:47:45.113Z,99880.00
2019-04-21T19:50:21.433Z,99882.00
2019-04-21T19:52:39.851Z,99888.00
2019-04-21T19:55:04.581Z,99891.00
2019-04-21T19:57:35.149Z,99888.00
2019-04-21T20:00:10.101Z,99879.00
2019-04-21T20:02:42.701Z,99878.00
2019-04-21T20:05:24.247Z,99882.00
2019-04-21T20:08:03.769Z,99879.00
2019-04-21T20:10:39.517Z,99882.00
2019-04-21T20:13:14.821Z,99881.00
2019-04-21T20:15:45.957Z,99878.00
2019-04-21T20:18:07.165Z,99882.00
2019-04-21T20:20:28.948Z,99875.00
2019-04-21T20:23:01.180Z,99873.00
2019-04-21T20:25:39.349Z,99880.00
2019-04-21T20:28:14.733Z,99872.00
2019-04-21T20:30:59.584Z,99865.00
2019-04-21T20:33:49.291Z,99872.00
2019-04-21T20:36:08.228Z,99875.00
2019-04-21T20:38:25.112Z,99873.00
2019-04-21T20:40:57.043Z,99868.00
2019-04-21T20:43:38.159Z,99872.00
2019-04-21T20:46:07.833Z,99878.00
2019-04-21T20:48:40.132Z,99871.00
2019-04-21T20:51:18.394Z,99869.00
2019-04-21T20:53:45.260Z,99867.00
2019-04-21T20:56:13.270Z,99865.00
2019-04-21T20:58:55.487Z,99869.00
2019-04-21T21:03:51.835Z,99874.00
2019-04-21T21:06:26.276Z,99872.00
2019-04-21T21:09:04.858Z,99867.00
2019-04-21T21:11:42.314Z,99870.00
2019-04-21T21:14:12.880Z,99867.00
2019-04-21T21:16:46.405Z,99867.00
2019-04-21T21:21:44.421Z,99862.00
2019-04-21T21:24:29.074Z,99859.00
2019-04-21T21:26:54.610Z,99862.00
2019-04-21T21:29:29.181Z,99856.00
2019-04-21T21:32:05.156Z,99859.00
2019-04-21T21:34:37.194Z,99853.00
2019-04-21T21:37:21.728Z,99854.00
2019-04-21T21:39:52.011Z,99855.00
2019-04-21T21:42:05.124Z,99849.00
2019-04-21T21:44:35.705Z,99850.00
2019-04-21T21:47:22.694Z,99845.00
2019-04-21T21:49:52.660Z,99849.00
2019-04-21T21:52:22.284Z,99845.00
2019-04-21T21:54:45.518Z,99851.00
2019-04-21T21:57:16.519Z,99849.00
2019-04-21T21:59:50.804Z,99848.00
2019-04-21T22:02:31.071Z,99841.00
2019-04-21T22:05:01.230Z,99843.00
2019-04-21T22:07:29.872Z,99828.00
2019-04-21T22:09:57.896Z,99828.00
2019-04-21T22:12:35.019Z,99833.00
2019-04-21T22:15:02.380Z,99828.00
2019-04-21T22:17:49.312Z,99827.00
2019-04-21T22:20:27.155Z,99828.00
2019-04-21T22:22:48.703Z,99821.00
2019-04-21T22:25:20.762Z,99818.00
2019-04-21T22:27:45.425Z,99819.00
2019-04-21T22:30:24.704Z,99828.00
2019-04-21T22:32:57.096Z,99823.00
2019-04-21T22:35:30.132Z,99819.00
2019-04-21T22:38:08.419Z,99819.00
2019-04-21T22:40:44.307Z,99812.00
2019-04-21T22:43:11.391Z,99818.00
2019-04-21T22:45:31.819Z,99821.00
2019-04-21T22:48:07.216Z,99808.00
2019-04-21T22:50:38.631Z,99812.00
2019-04-21T22:53:10.633Z,99809.00
2019-04-21T22:55:42.956Z,99813.00
2019-04-21T22:58:17.076Z,99813.00
2019-04-21T23:00:52.966Z,99822.00
2019-04-21T23:03:21.329Z,99811.00
2019-04-21T23:05:53.540Z,99819.00
2019-04-21T23:08:31.885Z,99808.00
2019-04-21T23:10:59.826Z,99810.00
2019-04-21T23:13:29.328Z,99812.00
2019-04-21T23:16:03.071Z,99808.00
2019-04-21T23:18:46.437Z,99805.00
2019-04-21T23:21:17.389Z,99805.00
2019-04-21T23:23:57.227Z,99803.00
2019-04-21T23:26:36.471Z,99802.00
2019-04-21T23:29:07.573Z,99812.00
2019-04-21T23:31:41.796Z,99810.00
2019-04-21T23:33:54.520Z,99807.00
2019-04-21T23:36:29.655Z,99797.00
2019-04-21T23:38:58.661Z,99803.00
2019-04-21T23:41:39.292Z,99802.00
2019-04-21T23:44:04.533Z,99794.00
2019-04-21T23:46:35.598Z,99793.00
2019-04-21T23:49:20.176Z,99796.00
2019-04-21T23:51:46.997Z,99793.00
2019-04-21T23:54:11.406Z,99794.00
2019-04-21T23:56:45.519Z,99791.00
2019-04-21T23:59:16.517Z,99788.00
